createdAt,value
2017-09-28T00:02:26.241Z,84.90
2017-09-28T00:04:54.097Z,84.40
2017-09-28T00:07:22.044Z,84.30
2017-09-28T00:09:49.695Z,84.80
2017-09-28T00:12:17.436Z,84.80
2017-09-28T00:14:45.124Z,84.90
2017-09-28T00:17:12.803Z,84.80
2017-09-28T00:19:40.575Z,84.70
2017-09-28T00:22:08.248Z,84.70
2017-09-28T00:24:36.314Z,85.00
2017-09-28T00:27:04.227Z,85.00
2017-09-28T00:29:31.906Z,85.40
2017-09-28T00:32:00.131Z,85.80
2017-09-28T00:34:27.918Z,85.80
2017-09-28T00:36:56.139Z,85.50
2017-09-28T00:39:23.990Z,85.50
2017-09-28T00:41:51.840Z,85.30
2017-09-28T00:44:19.693Z,85.30
2017-09-28T00:46:47.394Z,85.40
2017-09-28T00:49:15.286Z,85.90
2017-09-28T00:51:42.947Z,86.10
2017-09-28T00:54:10.652Z,86.20
2017-09-28T00:56:38.375Z,85.80
2017-09-28T00:59:06.172Z,85.90
2017-09-28T01:01:33.862Z,86.00
2017-09-28T01:04:01.667Z,86.00
2017-09-28T01:06:29.356Z,85.80
2017-09-28T01:08:57.086Z,86.20
2017-09-28T01:11:25.287Z,86.40
2017-09-28T01:13:53.066Z,86.40
2017-09-28T01:16:20.815Z,86.10
2017-09-28T01:18:48.619Z,85.80
2017-09-28T01:21:16.411Z,85.10
2017-09-28T01:23:44.173Z,85.00
2017-09-28T01:26:11.991Z,84.70
2017-09-28T01:28:39.755Z,84.20
2017-09-28T01:31:07.490Z,83.90
2017-09-28T01:33:35.288Z,84.30
2017-09-28T01:36:03.099Z,84.30
2017-09-28T01:38:30.843Z,84.70
2017-09-28T01:40:58.695Z,84.80
2017-09-28T01:43:26.347Z,84.80
2017-09-28T01:45:54.090Z,85.00
2017-09-28T01:48:21.905Z,85.10
2017-09-28T01:50:49.595Z,85.10
2017-09-28T01:53:17.333Z,84.90
2017-09-28T01:55:45.182Z,84.00
2017-09-28T01:58:13.105Z,84.30
2017-09-28T02:00:40.816Z,84.50
2017-09-28T02:03:08.538Z,84.80
2017-09-28T02:05:36.273Z,86.00
2017-09-28T02:08:03.986Z,86.30
2017-09-28T02:10:31.767Z,86.60
2017-09-28T02:12:59.516Z,86.40
2017-09-28T02:15:27.262Z,86.00
2017-09-28T02:17:55.114Z,85.50
2017-09-28T02:20:22.826Z,85.10
2017-09-28T02:22:50.608Z,85.30
2017-09-28T02:25:18.526Z,85.40
2017-09-28T02:27:46.274Z,86.00
2017-09-28T02:30:14.054Z,85.50
2017-09-28T02:32:41.802Z,85.50
2017-09-28T02:35:09.475Z,85.00
2017-09-28T02:37:37.618Z,85.80
2017-09-28T02:40:05.452Z,85.80
2017-09-28T02:42:33.200Z,86.20
2017-09-28T02:45:00.848Z,86.90
2017-09-28T02:47:28.596Z,87.40
2017-09-28T02:49:56.458Z,87.50
2017-09-28T02:52:24.191Z,87.50
2017-09-28T02:54:52.007Z,86.90
2017-09-28T02:57:19.686Z,86.60
2017-09-28T02:59:47.336Z,87.20
2017-09-28T03:02:15.043Z,87.30
2017-09-28T03:04:42.686Z,87.40
2017-09-28T03:07:10.367Z,87.20
2017-09-28T03:09:38.123Z,87.30
2017-09-28T03:12:05.772Z,87.20
2017-09-28T03:14:33.411Z,87.10
2017-09-28T03:17:01.118Z,87.10
2017-09-28T03:19:28.795Z,86.70
2017-09-28T03:21:56.431Z,86.80
2017-09-28T03:24:24.143Z,86.60
2017-09-28T03:26:51.819Z,86.60
2017-09-28T03:29:19.479Z,86.60
2017-09-28T03:31:47.162Z,86.20
2017-09-28T03:34:15.284Z,86.10
2017-09-28T03:36:43.029Z,86.10
2017-09-28T03:39:10.776Z,85.20
2017-09-28T03:41:38.523Z,85.20
2017-09-28T03:44:06.164Z,85.60
2017-09-28T03:46:34.007Z,86.00
2017-09-28T03:49:01.666Z,86.30
2017-09-28T03:51:29.335Z,86.50
2017-09-28T03:53:57.565Z,86.60
2017-09-28T03:56:25.316Z,86.50
2017-09-28T03:58:52.970Z,86.30
2017-09-28T04:01:20.671Z,86.20
2017-09-28T04:03:48.353Z,85.30
2017-09-28T04:06:16.002Z,84.60
2017-09-28T04:08:43.706Z,83.60
2017-09-28T04:11:11.383Z,83.70
2017-09-28T04:13:39.043Z,85.30
2017-09-28T04:16:06.866Z,85.30
2017-09-28T04:18:34.528Z,86.30
2017-09-28T04:21:02.276Z,86.60
2017-09-28T04:23:30.330Z,86.80
2017-09-28T04:25:58.077Z,87.00
2017-09-28T04:28:25.827Z,86.90
2017-09-28T04:30:53.554Z,86.40
2017-09-28T04:33:21.322Z,86.30
2017-09-28T04:35:49.069Z,86.20
2017-09-28T04:38:16.816Z,86.20
2017-09-28T04:40:44.471Z,86.80
2017-09-28T04:43:12.691Z,87.20
2017-09-28T04:45:40.569Z,87.20
2017-09-28T04:48:08.223Z,87.30
2017-09-28T04:50:35.961Z,87.20
2017-09-28T04:53:03.679Z,87.40
2017-09-28T04:55:31.353Z,87.20
2017-09-28T04:57:59.003Z,87.50
2017-09-28T05:00:26.711Z,87.70
2017-09-28T05:02:54.415Z,87.60
2017-09-28T05:05:22.553Z,87.30
2017-09-28T05:07:50.281Z,87.30
2017-09-28T05:10:18.044Z,87.20
2017-09-28T05:12:45.699Z,87.60
2017-09-28T05:15:13.436Z,87.50
2017-09-28T05:17:41.183Z,87.70
2017-09-28T05:20:08.931Z,87.60
2017-09-28T05:22:36.636Z,87.70
2017-09-28T05:25:04.322Z,87.60
2017-09-28T05:27:32.069Z,87.40
2017-09-28T05:29:59.921Z,87.00
2017-09-28T05:32:27.666Z,87.00
2017-09-28T05:34:55.417Z,86.40
2017-09-28T05:37:23.139Z,85.90
2017-09-28T05:39:50.813Z,86.30
2017-09-28T05:42:18.555Z,86.30
2017-09-28T05:44:46.400Z,86.20
2017-09-28T05:47:14.062Z,85.60
2017-09-28T05:49:41.716Z,85.40
2017-09-28T05:52:10.280Z,85.30
2017-09-28T05:54:38.340Z,84.70
2017-09-28T05:57:06.415Z,84.20
2017-09-28T05:59:34.198Z,84.20
2017-09-28T06:02:01.923Z,83.70
2017-09-28T06:04:29.631Z,83.80
2017-09-28T06:06:57.466Z,83.50
2017-09-28T06:09:25.213Z,83.00
2017-09-28T06:11:52.867Z,82.00
2017-09-28T06:14:20.575Z,81.90
2017-09-28T06:16:48.224Z,81.60
2017-09-28T06:19:15.880Z,81.20
2017-09-28T06:21:43.731Z,80.70
2017-09-28T06:24:11.395Z,80.40
2017-09-28T06:26:39.091Z,80.10
2017-09-28T06:29:06.822Z,79.70
2017-09-28T06:31:34.475Z,78.90
2017-09-28T06:34:02.127Z,78.50
2017-09-28T06:36:30.088Z,77.70
2017-09-28T06:38:57.767Z,77.60
2017-09-28T06:41:25.423Z,76.90
2017-09-28T06:43:53.138Z,76.40
2017-09-28T06:46:20.812Z,76.70
2017-09-28T06:48:48.459Z,76.40
2017-09-28T06:51:16.167Z,75.40
2017-09-28T06:53:43.810Z,76.00
2017-09-28T06:56:11.490Z,75.90
2017-09-28T06:58:39.332Z,76.10
2017-09-28T07:01:07.085Z,76.60
2017-09-28T07:03:34.739Z,76.00
2017-09-28T07:06:02.478Z,76.30
2017-09-28T07:08:30.176Z,76.90
2017-09-28T07:10:57.827Z,76.50
2017-09-28T07:13:25.531Z,77.00
2017-09-28T07:15:53.187Z,76.80
2017-09-28T07:18:21.235Z,76.50
2017-09-28T07:20:48.980Z,76.50
2017-09-28T07:23:16.641Z,75.30
2017-09-28T07:25:44.765Z,74.80
2017-09-28T07:28:12.513Z,74.80
2017-09-28T07:30:40.196Z,74.00
2017-09-28T07:33:07.879Z,74.00
2017-09-28T07:35:35.650Z,73.50
2017-09-28T07:38:03.398Z,71.80
2017-09-28T07:40:31.043Z,71.70
2017-09-28T07:42:58.746Z,72.20
2017-09-28T07:45:26.399Z,70.10
2017-09-28T07:47:54.038Z,71.50
2017-09-28T07:50:21.830Z,72.00
2017-09-28T07:52:49.479Z,71.50
2017-09-28T07:55:17.133Z,71.60
2017-09-28T07:57:44.958Z,70.80
2017-09-28T08:00:12.607Z,71.10
2017-09-28T08:02:40.260Z,70.80
2017-09-28T08:05:08.006Z,70.70
2017-09-28T08:07:35.660Z,68.30
2017-09-28T08:10:03.399Z,68.00
2017-09-28T08:12:31.143Z,69.50
2017-09-28T08:14:58.792Z,69.10
2017-09-28T08:17:26.452Z,69.80
2017-09-28T08:19:54.184Z,69.40
2017-09-28T08:22:21.855Z,70.30
2017-09-28T08:24:49.531Z,68.50
2017-09-28T08:27:17.322Z,69.10
2017-09-28T08:29:45.047Z,69.00
2017-09-28T08:32:12.712Z,68.80
2017-09-28T08:34:40.503Z,68.90
2017-09-28T08:37:08.170Z,69.20
2017-09-28T08:39:35.863Z,68.40
2017-09-28T08:42:03.604Z,68.60
2017-09-28T08:44:31.341Z,68.90
2017-09-28T08:46:59.095Z,68.60
2017-09-28T08:49:26.799Z,68.10
2017-09-28T08:51:54.447Z,68.80
2017-09-28T08:54:22.099Z,68.60
2017-09-28T08:56:49.882Z,69.40
2017-09-28T08:59:17.531Z,69.50
2017-09-28T09:01:45.275Z,68.30
2017-09-28T09:04:12.968Z,68.90
2017-09-28T09:06:40.665Z,69.00
2017-09-28T09:09:08.330Z,68.70
2017-09-28T09:11:36.028Z,69.20
2017-09-28T09:14:03.689Z,67.10
2017-09-28T09:16:31.349Z,68.10
2017-09-28T09:18:59.094Z,68.30
2017-09-28T09:21:26.841Z,68.10
2017-09-28T09:23:54.591Z,67.60
2017-09-28T09:26:22.299Z,68.00
2017-09-28T09:28:49.944Z,68.50
2017-09-28T09:31:17.630Z,66.50
2017-09-28T09:33:45.326Z,67.30
2017-09-28T09:36:13.004Z,67.20
2017-09-28T09:38:40.650Z,67.20
2017-09-28T09:41:08.344Z,68.00
2017-09-28T09:43:36.435Z,67.10
2017-09-28T09:46:04.113Z,67.10
2017-09-28T09:48:31.802Z,67.90
2017-09-28T09:50:59.495Z,67.70
2017-09-28T09:53:27.250Z,67.60
2017-09-28T09:55:55.000Z,68.30
2017-09-28T09:58:22.648Z,68.20
2017-09-28T10:00:50.394Z,68.20
2017-09-28T10:03:18.139Z,68.20
2017-09-28T10:05:45.818Z,67.80
2017-09-28T10:08:23.387Z,67.30
2017-09-28T10:10:54.490Z,67.50
2017-09-28T10:13:23.361Z,67.50
2017-09-28T10:16:00.467Z,67.60
2017-09-28T10:18:28.611Z,66.80
2017-09-28T10:20:56.737Z,66.30
2017-09-28T10:23:24.388Z,66.40
2017-09-28T10:25:52.132Z,66.70
2017-09-28T10:28:19.776Z,65.60
2017-09-28T10:30:47.422Z,66.00
2017-09-28T10:33:15.184Z,66.40
2017-09-28T10:35:42.916Z,67.50
2017-09-28T10:38:10.662Z,67.20
2017-09-28T10:40:38.410Z,64.40
2017-09-28T10:43:06.056Z,64.40
2017-09-28T10:45:33.731Z,65.30
2017-09-28T10:48:01.836Z,64.60
2017-09-28T10:50:29.500Z,64.70
2017-09-28T10:52:57.249Z,64.30
2017-09-28T10:55:24.998Z,64.00
2017-09-28T10:57:52.746Z,63.70
2017-09-28T11:00:20.412Z,62.90
2017-09-28T11:02:48.119Z,65.00
2017-09-28T11:05:15.782Z,61.10
2017-09-28T11:07:43.529Z,62.00
2017-09-28T11:10:11.234Z,61.60
2017-09-28T11:12:39.023Z,63.10
2017-09-28T11:15:06.695Z,62.20
2017-09-28T11:17:35.070Z,63.00
2017-09-28T11:20:03.288Z,64.30
2017-09-28T11:22:31.036Z,64.30
2017-09-28T11:24:58.815Z,63.20
2017-09-28T11:27:26.855Z,62.10
2017-09-28T11:29:54.502Z,62.10
2017-09-28T11:32:22.437Z,62.70
2017-09-28T11:34:50.185Z,63.20
2017-09-28T11:37:17.836Z,62.30
2017-09-28T11:39:45.667Z,62.30
2017-09-28T11:42:13.324Z,62.30
2017-09-28T11:44:40.971Z,62.40
2017-09-28T11:47:08.716Z,62.00
2017-09-28T11:49:36.399Z,61.50
2017-09-28T11:52:04.435Z,62.10
2017-09-28T11:54:32.123Z,62.10
2017-09-28T11:56:59.807Z,62.70
2017-09-28T11:59:27.554Z,62.30
2017-09-28T12:01:55.408Z,60.90
2017-09-28T12:04:23.153Z,60.50
2017-09-28T12:06:50.795Z,59.60
2017-09-28T12:09:18.546Z,59.40
2017-09-28T12:11:46.293Z,60.30
2017-09-28T12:14:14.039Z,61.00
2017-09-28T12:16:41.889Z,61.10
2017-09-28T12:19:09.536Z,61.10
2017-09-28T12:21:37.191Z,62.90
2017-09-28T12:24:04.904Z,63.50
2017-09-28T12:26:32.570Z,63.70
2017-09-28T12:29:00.320Z,64.90
2017-09-28T12:31:28.068Z,64.70
2017-09-28T12:33:55.815Z,64.10
2017-09-28T12:36:23.471Z,64.10
2017-09-28T12:38:51.207Z,64.60
2017-09-28T12:41:18.851Z,63.90
2017-09-28T12:43:46.599Z,63.10
2017-09-28T12:46:14.307Z,64.80
2017-09-28T12:48:41.971Z,64.70
2017-09-28T12:51:09.634Z,64.00
2017-09-28T12:53:37.431Z,64.00
2017-09-28T12:56:05.076Z,64.50
2017-09-28T12:58:32.734Z,64.50
2017-09-28T13:01:00.521Z,64.80
2017-09-28T13:03:28.187Z,64.70
2017-09-28T13:05:55.831Z,65.40
2017-09-28T13:08:24.483Z,64.90
2017-09-28T13:10:52.231Z,64.80
2017-09-28T13:13:19.879Z,65.50
2017-09-28T13:15:47.567Z,64.30
2017-09-28T13:18:15.227Z,63.60
2017-09-28T13:20:42.870Z,64.30
2017-09-28T13:23:10.659Z,64.20
2017-09-28T13:25:38.303Z,64.50
2017-09-28T13:28:05.943Z,64.80
2017-09-28T13:30:33.695Z,64.40
2017-09-28T13:33:01.443Z,65.20
2017-09-28T13:35:29.190Z,64.90
2017-09-28T13:37:56.884Z,65.50
2017-09-28T13:40:24.535Z,64.50
2017-09-28T13:42:52.183Z,64.50
2017-09-28T13:45:19.976Z,64.80
2017-09-28T13:47:47.727Z,65.30
2017-09-28T13:50:15.470Z,65.60
2017-09-28T13:52:43.321Z,65.60
2017-09-28T13:55:11.088Z,65.50
2017-09-28T13:57:38.816Z,65.40
2017-09-28T14:00:06.542Z,65.30
2017-09-28T14:02:34.187Z,65.00
2017-09-28T14:05:01.852Z,65.50
2017-09-28T14:07:29.568Z,63.90
2017-09-28T14:09:57.223Z,65.10
2017-09-28T14:12:24.994Z,65.40
2017-09-28T14:14:52.843Z,65.10
2017-09-28T14:17:20.591Z,64.70
2017-09-28T14:19:48.243Z,65.00
2017-09-28T14:22:15.983Z,64.70
2017-09-28T14:24:43.731Z,65.30
2017-09-28T14:27:11.374Z,65.00
2017-09-28T14:29:39.151Z,65.20
2017-09-28T14:32:07.207Z,64.50
2017-09-28T14:34:35.248Z,64.50
2017-09-28T14:37:02.955Z,64.50
2017-09-28T14:39:30.607Z,64.70
2017-09-28T14:41:58.267Z,63.90
2017-09-28T14:44:26.056Z,63.70
2017-09-28T14:46:54.175Z,64.10
2017-09-28T14:49:21.828Z,64.10
2017-09-28T14:51:49.575Z,63.50
2017-09-28T14:54:17.314Z,63.20
2017-09-28T14:56:44.952Z,62.80
2017-09-28T14:59:12.706Z,63.20
2017-09-28T15:01:40.351Z,63.40
2017-09-28T15:04:08.098Z,63.40
2017-09-28T15:06:35.949Z,64.30
2017-09-28T15:09:03.677Z,63.90
2017-09-28T15:11:31.338Z,64.30
2017-09-28T15:13:59.188Z,64.80
2017-09-28T15:16:27.033Z,65.00
2017-09-28T15:18:54.684Z,64.80
2017-09-28T15:21:22.546Z,65.50
2017-09-28T15:23:50.282Z,66.10
2017-09-28T15:26:17.928Z,65.60
2017-09-28T15:28:45.730Z,66.10
2017-09-28T15:31:13.497Z,66.10
2017-09-28T15:33:41.144Z,66.50
2017-09-28T15:36:08.915Z,67.60
2017-09-28T15:38:36.567Z,68.70
2017-09-28T15:41:04.308Z,68.30
2017-09-28T15:43:32.159Z,69.90
2017-09-28T15:45:59.815Z,70.20
2017-09-28T15:48:27.549Z,70.60
2017-09-28T15:50:55.247Z,70.50
2017-09-28T15:53:22.888Z,70.00
2017-09-28T15:55:50.592Z,70.30
2017-09-28T15:58:18.422Z,70.70
2017-09-28T16:00:46.063Z,70.70
2017-09-28T16:03:13.830Z,71.60
2017-09-28T16:05:41.632Z,72.20
2017-09-28T16:08:09.284Z,72.80
2017-09-28T16:10:36.924Z,73.50
2017-09-28T16:13:04.717Z,73.40
2017-09-28T16:15:32.370Z,73.10
2017-09-28T16:18:00.020Z,73.20
2017-09-28T16:20:28.028Z,73.70
2017-09-28T16:22:55.614Z,73.80
2017-09-28T16:25:23.353Z,74.10
2017-09-28T16:27:51.047Z,74.10
2017-09-28T16:30:18.745Z,74.70
2017-09-28T16:32:46.394Z,75.20
2017-09-28T16:35:14.120Z,75.50
2017-09-28T16:37:41.780Z,76.20
2017-09-28T16:40:09.429Z,76.30
2017-09-28T16:42:37.207Z,76.60
2017-09-28T16:45:05.329Z,77.10
2017-09-28T16:47:33.076Z,77.10
2017-09-28T16:50:00.771Z,77.50
2017-09-28T16:52:28.571Z,77.40
2017-09-28T16:54:56.266Z,77.80
2017-09-28T16:57:24.075Z,78.10
2017-09-28T16:59:51.731Z,78.50
2017-09-28T17:02:19.460Z,78.60
2017-09-28T17:04:47.162Z,78.80
2017-09-28T17:07:14.852Z,78.80
2017-09-28T17:09:42.508Z,79.00
2017-09-28T17:12:10.243Z,79.20
2017-09-28T17:14:37.989Z,79.60
2017-09-28T17:17:05.642Z,79.60
2017-09-28T17:19:33.382Z,79.60
2017-09-28T17:22:01.130Z,80.30
2017-09-28T17:24:28.876Z,80.30
2017-09-28T17:26:56.596Z,80.10
2017-09-28T17:29:24.304Z,80.40
2017-09-28T17:31:52.349Z,81.20
2017-09-28T17:34:20.119Z,81.20
2017-09-28T17:36:47.820Z,81.50
2017-09-28T17:39:15.567Z,81.90
2017-09-28T17:41:43.307Z,81.60
2017-09-28T17:44:11.062Z,81.80
2017-09-28T17:46:38.716Z,82.30
2017-09-28T17:49:06.453Z,82.30
2017-09-28T17:51:34.200Z,82.80
2017-09-28T17:54:01.855Z,83.40
2017-09-28T17:56:29.669Z,83.70
2017-09-28T17:58:57.322Z,83.50
2017-09-28T18:01:24.987Z,83.30
2017-09-28T18:03:53.037Z,83.70
2017-09-28T18:06:20.789Z,83.20
2017-09-28T18:08:48.536Z,83.10
2017-09-28T18:11:16.426Z,83.60
2017-09-28T18:13:44.144Z,84.30
2017-09-28T18:16:11.882Z,84.60
2017-09-28T18:18:39.635Z,84.40
2017-09-28T18:21:07.340Z,84.20
2017-09-28T18:23:34.991Z,84.30
2017-09-28T18:26:02.851Z,84.00
2017-09-28T18:28:30.512Z,84.00
2017-09-28T18:30:58.926Z,84.20
2017-09-28T18:33:27.646Z,83.80
2017-09-28T18:35:55.401Z,83.70
2017-09-28T18:38:23.055Z,83.70
2017-09-28T18:40:50.793Z,85.10
2017-09-28T18:43:18.536Z,85.00
2017-09-28T18:45:46.283Z,84.80
2017-09-28T18:48:14.560Z,84.50
2017-09-28T18:50:42.683Z,84.40
2017-09-28T18:53:11.474Z,84.40
2017-09-28T18:55:39.216Z,84.30
2017-09-28T18:58:06.875Z,84.40
2017-09-28T19:00:34.609Z,84.30
2017-09-28T19:03:02.367Z,84.20
2017-09-28T19:05:30.072Z,85.30
2017-09-28T19:07:57.851Z,86.50
2017-09-28T19:10:25.992Z,86.80
2017-09-28T19:12:53.654Z,86.80
2017-09-28T19:15:21.402Z,86.50
2017-09-28T19:17:49.116Z,86.30
2017-09-28T19:20:16.788Z,86.20
2017-09-28T19:22:44.541Z,86.50
2017-09-28T19:25:12.342Z,86.70
2017-09-28T19:27:40.036Z,86.80
2017-09-28T19:30:07.818Z,86.80
2017-09-28T19:32:35.930Z,87.10
2017-09-28T19:35:03.583Z,87.10
2017-09-28T19:37:31.331Z,87.70
2017-09-28T19:39:59.052Z,87.60
2017-09-28T19:42:26.724Z,87.00
2017-09-28T19:44:54.379Z,86.90
2017-09-28T19:47:22.187Z,87.10
2017-09-28T19:49:49.851Z,87.50
2017-09-28T19:52:17.520Z,87.70
2017-09-28T19:54:45.363Z,88.20
2017-09-28T19:57:13.108Z,87.90
2017-09-28T19:59:40.760Z,87.70
2017-09-28T20:02:08.806Z,87.60
2017-09-28T20:04:36.553Z,87.40
2017-09-28T20:07:04.300Z,87.20
2017-09-28T20:09:32.003Z,87.00
2017-09-28T20:11:59.691Z,86.60
2017-09-28T20:14:27.439Z,86.60
2017-09-28T20:16:55.294Z,86.70
2017-09-28T20:19:23.039Z,86.70
2017-09-28T20:21:50.700Z,86.60
2017-09-28T20:24:18.528Z,86.50
2017-09-28T20:26:46.191Z,86.70
2017-09-28T20:29:13.848Z,86.50
2017-09-28T20:31:42.071Z,86.20
2017-09-28T20:34:09.829Z,86.20
2017-09-28T20:36:37.576Z,86.10
2017-09-28T20:39:05.516Z,86.00
2017-09-28T20:41:33.187Z,85.90
2017-09-28T20:44:00.847Z,85.90
2017-09-28T20:46:28.571Z,85.20
2017-09-28T20:48:56.244Z,84.70
2017-09-28T20:51:24.472Z,85.30
2017-09-28T20:53:52.251Z,85.20
2017-09-28T20:56:20.376Z,84.80
2017-09-28T20:58:48.064Z,84.80
2017-09-28T21:01:15.783Z,84.80
2017-09-28T21:03:43.515Z,85.20
2017-09-28T21:06:11.172Z,85.20
2017-09-28T21:08:38.988Z,85.20
2017-09-28T21:11:06.756Z,85.10
2017-09-28T21:13:34.504Z,84.00
2017-09-28T21:16:02.211Z,84.00
2017-09-28T21:18:29.894Z,85.10
2017-09-28T21:20:57.600Z,85.20
2017-09-28T21:23:25.320Z,85.30
2017-09-28T21:25:53.375Z,85.30
2017-09-28T21:28:21.502Z,85.30
2017-09-28T21:30:49.204Z,85.30
2017-09-28T21:33:16.865Z,85.60
2017-09-28T21:35:44.539Z,85.90
2017-09-28T21:38:12.435Z,86.00
2017-09-28T21:40:40.134Z,86.30
2017-09-28T21:43:07.792Z,86.20
2017-09-28T21:45:35.547Z,86.40
2017-09-28T21:48:03.273Z,86.30
2017-09-28T21:50:30.923Z,86.60
2017-09-28T21:52:58.766Z,87.00
2017-09-28T21:55:26.427Z,86.80
2017-09-28T21:57:54.080Z,86.90
2017-09-28T22:00:21.912Z,86.80
2017-09-28T22:02:49.584Z,87.20
2017-09-28T22:05:17.642Z,87.30
2017-09-28T22:07:45.870Z,87.30
2017-09-28T22:10:13.617Z,87.30
2017-09-28T22:12:41.364Z,87.50
2017-09-28T22:15:09.158Z,87.40
2017-09-28T22:17:36.858Z,87.30
2017-09-28T22:20:04.560Z,87.10
2017-09-28T22:22:32.324Z,86.90
2017-09-28T22:24:59.996Z,86.70
2017-09-28T22:27:27.652Z,86.90
2017-09-28T22:29:55.355Z,86.90
2017-09-28T22:32:23.014Z,86.70
2017-09-28T22:34:50.676Z,86.50
2017-09-28T22:37:18.520Z,86.30
2017-09-28T22:39:46.176Z,86.40
2017-09-28T22:42:13.831Z,86.40
2017-09-28T22:44:41.592Z,86.80
2017-09-28T22:47:09.644Z,86.80
2017-09-28T22:49:37.778Z,87.00
2017-09-28T22:52:05.495Z,87.00
2017-09-28T22:54:33.153Z,87.10
2017-09-28T22:57:00.808Z,86.90
2017-09-28T22:59:28.516Z,86.30
2017-09-28T23:01:56.171Z,85.00
2017-09-28T23:04:24.368Z,84.30
2017-09-28T23:06:52.319Z,84.30
2017-09-28T23:09:20.066Z,84.60
2017-09-28T23:11:47.813Z,84.30
2017-09-28T23:14:15.527Z,84.00
2017-09-28T23:16:44.107Z,83.40
2017-09-28T23:19:11.771Z,83.40
2017-09-28T23:21:39.575Z,83.70
2017-09-28T23:24:07.228Z,84.20
2017-09-28T23:26:34.911Z,84.90
2017-09-28T23:29:02.627Z,85.50
2017-09-28T23:31:30.270Z,85.70
2017-09-28T23:33:57.948Z,85.60
2017-09-28T23:36:25.647Z,86.20
2017-09-28T23:38:53.343Z,86.70
2017-09-28T23:41:21.089Z,86.60
2017-09-28T23:43:48.780Z,86.50
2017-09-28T23:46:16.481Z,86.10
2017-09-28T23:48:44.136Z,86.80
2017-09-28T23:51:11.976Z,87.00
2017-09-28T23:53:39.724Z,87.20
2017-09-28T23:56:07.371Z,87.50
2017-09-28T23:58:35.116Z,87.60
